Time;durP1;ratioP1;P1;durP2;ratioP2;P2;SDS_P1;SDS_P2;PMS_P1;PMS_P2;Temp;Humidity;BMP_temperature;BMP_pressure;BME280_temperature;BME280_humidity;BME280_pressure;Samples;Min_cycle;Max_cycle;Signal;HPM_P1;HPM_P2
2020/12/20 00:00:34;;;;;;;;;;;;;;;;;;5092589;28;20030;-65
2020/12/20 00:03:01;;;;;;;;;;;;;;;;;;5096281;28;19924;-66
2020/12/20 00:05:27;;;;;;;;;;;;;;;;;;5078498;28;19924;-65
2020/12/20 00:07:54;;;;;;;;;;;;;;;;;;5082610;28;19976;-67
2020/12/20 00:10:20;;;;;;;;;;;;;;;;;;5080426;28;19924;-67
2020/12/20 00:12:47;;;;;;;;;;;;;;;;;;5079417;28;19925;-67
2020/12/20 00:15:13;;;;;;;;;;;;;;;;;;5093694;28;20059;-65
2020/12/20 00:17:40;;;;;;;;;;;;;;;;;;5104559;28;20362;-66
2020/12/20 00:20:06;;;;;;;;;;;;;;;;;;5100035;28;19931;-66
2020/12/20 00:22:33;;;;;;;;;;;;;;;;;;5097227;28;20430;-66
2020/12/20 00:24:59;;;;;;;;;;;;;;;;;;5093568;28;19924;-66
2020/12/20 00:27:25;;;;;;;;;;;;;;;;;;5106471;28;19988;-66
2020/12/20 00:29:52;;;;;;;;;;;;;;;;;;5099249;28;19924;-67
2020/12/20 00:32:18;;;;;;;;;;;;;;;;;;5093353;28;19980;-67
2020/12/20 00:34:45;;;;;;;;;;;;;;;;;;5109265;28;19979;-67
2020/12/20 00:37:12;;;;;;;;;;;;;;;;;;5098991;28;19924;-66
2020/12/20 00:39:38;;;;;;;;;;;;;;;;;;5096041;28;19928;-66
2020/12/20 00:42:04;;;;;;;;;;;;;;;;;;5091110;28;19931;-67
2020/12/20 00:44:31;;;;;;;;;;;;;;;;;;5088954;28;19924;-65
2020/12/20 00:46:57;;;;;;;;;;;;;;;;;;5088668;28;20028;-66
2020/12/20 00:49:24;;;;;;;;;;;;;;;;;;5094498;28;20004;-65
2020/12/20 00:51:50;;;;;;;;;;;;;;;;;;5084337;28;19925;-65
2020/12/20 00:54:17;;;;;;;;;;;;;;;;;;5086067;28;19931;-66
2020/12/20 00:56:43;;;;;;;;;;;;;;;;;;5086855;28;20015;-67
2020/12/20 00:59:10;;;;;;;;;;;;;;;;;;5088769;28;20306;-66
2020/12/20 01:01:36;;;;;;;;;;;;;;;;;;5086586;28;20274;-66
2020/12/20 01:04:03;;;;;;;;;;;;;;;;;;5094287;28;20381;-66
2020/12/20 01:06:29;;;;;;;;;;;;;;;;;;5084588;28;19925;-67
2020/12/20 01:08:55;;;;;;;;;;;;;;;;;;5074513;28;19931;-66
2020/12/20 01:11:22;;;;;;;;;;;;;;;;;;5087524;28;19974;-68
2020/12/20 01:13:48;;;;;;;;;;;;;;;;;;5091396;28;19925;-66
2020/12/20 01:16:15;;;;;;;;;;;;;;;;;;5094207;28;19924;-66
2020/12/20 01:18:41;;;;;;;;;;;;;;;;;;5094681;28;19924;-67
2020/12/20 01:21:08;;;;;;;;;;;;;;;;;;5082457;28;20014;-67
2020/12/20 01:23:34;;;;;;;;;;;;;;;;;;5075320;28;20182;-67
2020/12/20 01:26:01;;;;;;;;;;;;;;;;;;5093922;28;19924;-67
2020/12/20 01:28:27;;;;;;;;;;;;;;;;;;5084718;28;19963;-70
2020/12/20 01:30:54;;;;;;;;;;;;;;;;;;5083654;28;19924;-66
2020/12/20 01:33:20;;;;;;;;;;;;;;;;;;5094244;28;20007;-67
2020/12/20 01:35:47;;;;;;;;;;;;;;;;;;5093801;28;19934;-66
2020/12/20 01:38:13;;;;;;;;;;;;;;;;;;5081815;28;19931;-66
2020/12/20 01:40:40;;;;;;;;;;;;;;;;;;5076397;28;21734;-66
2020/12/20 01:43:06;;;;;;;;;;;;;;;;;;5093950;28;20407;-67
2020/12/20 01:45:33;;;;;;;;;;;;;;;;;;5093965;28;19924;-66
2020/12/20 01:47:59;;;;;;;;;;;;;;;;;;5087084;28;19924;-66
2020/12/20 01:50:26;;;;;;;;;;;;;;;;;;5073985;28;19931;-66
2020/12/20 01:52:52;;;;;;;;;;;;;;;;;;5073874;28;19924;-66
2020/12/20 01:55:19;;;;;;;;;;;;;;;;;;5073484;28;19924;-67
2020/12/20 01:57:46;;;;;;;;;;;;;;;;;;5091282;28;20292;-68
2020/12/20 02:00:12;;;;;;;;;;;;;;;;;;5090684;28;19928;-67
2020/12/20 02:02:39;;;;;;;;;;;;;;;;;;5092957;28;19975;-67
2020/12/20 02:05:05;;;;;;;;;;;;;;;;;;5093541;28;19924;-67
2020/12/20 02:07:32;;;;;;;;;;;;;;;;;;5085136;28;20066;-66
2020/12/20 02:09:58;;;;;;;;;;;;;;;;;;5073385;28;19931;-66
2020/12/20 02:12:25;;;;;;;;;;;;;;;;;;5091447;28;20339;-66
2020/12/20 02:14:51;;;;;;;;;;;;;;;;;;5078143;28;20029;-66
2020/12/20 02:17:18;;;;;;;;;;;;;;;;;;5073289;28;20007;-66
2020/12/20 02:19:44;;;;;;;;;;;;;;;;;;5073410;28;19970;-66
2020/12/20 02:22:11;;;;;;;;;;;;;;;;;;5079568;28;20389;-67
2020/12/20 02:24:37;;;;;;;;;;;;;;;;;;5094086;28;19928;-67
2020/12/20 02:27:04;;;;;;;;;;;;;;;;;;5092472;28;20313;-67
2020/12/20 02:29:30;;;;;;;;;;;;;;;;;;5073114;28;19925;-66
2020/12/20 02:31:58;;;;;;;;;;;;;;;;;;5073180;28;19946;-66
2020/12/20 02:34:24;;;;;;;;;;;;;;;;;;5086195;28;19931;-66
2020/12/20 02:36:51;;;;;;;;;;;;;;;;;;5088589;28;20409;-66
2020/12/20 02:39:17;;;;;;;;;;;;;;;;;;5092437;28;19928;-66
2020/12/20 02:41:44;;;;;;;;;;;;;;;;;;5093304;28;20398;-68
2020/12/20 02:44:10;;;;;;;;;;;;;;;;;;5089801;28;19925;-70
2020/12/20 02:46:37;;;;;;;;;;;;;;;;;;5085666;28;19971;-66
2020/12/20 02:49:03;;;;;;;;;;;;;;;;;;5072708;28;19999;-66
2020/12/20 02:51:30;;;;;;;;;;;;;;;;;;5078685;28;19968;-66
2020/12/20 02:53:56;;;;;;;;;;;;;;;;;;5090697;28;19924;-66
2020/12/20 02:56:23;;;;;;;;;;;;;;;;;;5087971;28;20412;-67
2020/12/20 02:58:49;;;;;;;;;;;;;;;;;;5092856;28;19990;-67
2020/12/20 03:01:16;;;;;;;;;;;;;;;;;;5089270;28;20313;-67
2020/12/20 03:03:42;;;;;;;;;;;;;;;;;;5072825;28;20292;-65
2020/12/20 03:06:09;;;;;;;;;;;;;;;;;;5072802;28;19924;-66
2020/12/20 03:08:35;;;;;;;;;;;;;;;;;;5073900;28;20371;-67
2020/12/20 03:11:02;;;;;;;;;;;;;;;;;;5078182;28;19924;-66
2020/12/20 03:13:28;;;;;;;;;;;;;;;;;;5076450;28;19924;-65
2020/12/20 03:15:55;;;;;;;;;;;;;;;;;;5078159;28;19931;-66
2020/12/20 03:18:21;;;;;;;;;;;;;;;;;;5086813;28;19931;-65
2020/12/20 03:20:48;;;;;;;;;;;;;;;;;;5093389;28;19928;-66
2020/12/20 03:23:14;;;;;;;;;;;;;;;;;;5096353;28;20347;-65
2020/12/20 03:25:41;;;;;;;;;;;;;;;;;;5096974;28;19931;-65
2020/12/20 03:28:07;;;;;;;;;;;;;;;;;;5085476;28;19993;-66
2020/12/20 03:30:34;;;;;;;;;;;;;;;;;;5077723;28;19950;-66
2020/12/20 03:33:00;;;;;;;;;;;;;;;;;;5079392;28;19932;-66
2020/12/20 03:35:27;;;;;;;;;;;;;;;;;;5076797;28;19978;-66
2020/12/20 03:37:53;;;;;;;;;;;;;;;;;;5085611;28;20011;-67
2020/12/20 03:40:20;;;;;;;;;;;;;;;;;;5097155;28;20351;-66
2020/12/20 03:42:46;;;;;;;;;;;;;;;;;;5076818;28;19925;-67
2020/12/20 03:45:13;;;;;;;;;;;;;;;;;;5091781;28;19928;-66
2020/12/20 03:47:39;;;;;;;;;;;;;;;;;;5086600;28;20125;-66
2020/12/20 03:50:06;;;;;;;;;;;;;;;;;;5076296;28;20019;-69
2020/12/20 03:52:32;;;;;;;;;;;;;;;;;;5094930;28;19924;-66
2020/12/20 03:54:59;;;;;;;;;;;;;;;;;;5080659;28;19977;-66
2020/12/20 03:57:25;;;;;;;;;;;;;;;;;;5078671;28;19949;-69
2020/12/20 03:59:52;;;;;;;;;;;;;;;;;;5096172;28;19930;-66
2020/12/20 04:02:18;;;;;;;;;;;;;;;;;;5094295;28;19932;-67
2020/12/20 04:04:45;;;;;;;;;;;;;;;;;;5092908;28;19924;-68
2020/12/20 04:07:11;;;;;;;;;;;;;;;;;;5095655;28;19924;-66
2020/12/20 04:09:38;;;;;;;;;;;;;;;;;;5089802;28;20348;-66
2020/12/20 04:12:04;;;;;;;;;;;;;;;;;;5076254;28;19968;-66
2020/12/20 04:14:31;;;;;;;;;;;;;;;;;;5095021;28;19924;-66
2020/12/20 04:16:57;;;;;;;;;;;;;;;;;;5094149;28;19928;-66
2020/12/20 04:19:24;;;;;;;;;;;;;;;;;;5075106;28;19928;-66
2020/12/20 04:21:50;;;;;;;;;;;;;;;;;;5085294;28;19984;-66
2020/12/20 04:24:17;;;;;;;;;;;;;;;;;;5095500;28;20007;-66
2020/12/20 04:26:43;;;;;;;;;;;;;;;;;;5095246;28;19931;-66
2020/12/20 04:29:10;;;;;;;;;;;;;;;;;;5095332;28;19924;-66
2020/12/20 04:31:36;;;;;;;;;;;;;;;;;;5079794;28;19925;-66
2020/12/20 04:34:02;;;;;;;;;;;;;;;;;;5075445;28;19924;-65
2020/12/20 04:36:29;;;;;;;;;;;;;;;;;;5075324;28;19924;-68
2020/12/20 04:38:55;;;;;;;;;;;;;;;;;;5084320;28;19931;-66
2020/12/20 04:41:22;;;;;;;;;;;;;;;;;;5078414;28;20114;-66
2020/12/20 04:43:48;;;;;;;;;;;;;;;;;;5090259;28;19925;-66
2020/12/20 04:46:15;;;;;;;;;;;;;;;;;;5089677;28;19924;-65
2020/12/20 04:48:41;;;;;;;;;;;;;;;;;;5095135;28;20353;-66
2020/12/20 04:51:08;;;;;;;;;;;;;;;;;;5082594;28;19924;-65
2020/12/20 04:53:34;;;;;;;;;;;;;;;;;;5108315;22;19908;-65
2020/12/20 04:56:01;;;;;;;;;;;;;;;;;;5073468;28;19929;-65
2020/12/20 04:58:27;;;;;;;;;;;;;;;;;;5072503;28;20378;-67
2020/12/20 05:00:54;;;;;;;;;;;;;;;;;;5073062;28;19970;-67
2020/12/20 05:03:20;;;;;;;;;;;;;;;;;;5071865;28;19962;-66
2020/12/20 05:05:47;;;;;;;;;;;;;;;;;;5070500;28;19924;-65
2020/12/20 05:08:13;;;;;;;;;;;;;;;;;;5064079;28;19935;-66
2020/12/20 05:10:40;;;;;;;;;;;;;;;;;;5068573;28;20386;-66
2020/12/20 05:13:06;;;;;;;;;;;;;;;;;;5071404;28;19924;-67
2020/12/20 05:15:33;;;;;;;;;;;;;;;;;;5066971;28;20320;-66
2020/12/20 05:17:59;;;;;;;;;;;;;;;;;;5063562;28;19924;-65
2020/12/20 05:20:26;;;;;;;;;;;;;;;;;;5071578;28;19925;-66
2020/12/20 05:22:52;;;;;;;;;;;;;;;;;;5073444;28;19924;-65
2020/12/20 05:25:20;;;;;;;;;;;;;;;;;;5057132;28;19928;-66
2020/12/20 05:27:46;;;;;;;;;;;;;;;;;;5063844;28;19924;-64
2020/12/20 05:30:13;;;;;;;;;;;;;;;;;;5058003;28;20398;-66
2020/12/20 05:32:39;;;;;;;;;;;;;;;;;;5071593;28;19924;-66
2020/12/20 05:35:06;;;;;;;;;;;;;;;;;;5067984;28;19925;-66
2020/12/20 05:37:32;;;;;;;;;;;;;;;;;;5065250;28;19931;-66
2020/12/20 05:39:59;;;;;;;;;;;;;;;;;;5056738;28;20027;-66
2020/12/20 05:42:25;;;;;;;;;;;;;;;;;;5056989;28;20407;-66
2020/12/20 05:44:52;;;;;;;;;;;;;;;;;;5059438;28;19977;-66
2020/12/20 05:47:18;;;;;;;;;;;;;;;;;;5061307;28;19924;-65
2020/12/20 05:49:45;;;;;;;;;;;;;;;;;;5066558;28;19924;-65
2020/12/20 05:52:11;;;;;;;;;;;;;;;;;;5071467;28;20408;-66
2020/12/20 05:54:38;;;;;;;;;;;;;;;;;;5052518;28;19971;-66
2020/12/20 05:57:04;;;;;;;;;;;;;;;;;;5056173;28;20306;-64
2020/12/20 05:59:31;;;;;;;;;;;;;;;;;;5061060;28;19924;-65
2020/12/20 06:01:57;;;;;;;;;;;;;;;;;;5065677;28;20390;-65
2020/12/20 06:04:24;;;;;;;;;;;;;;;;;;5071330;28;19931;-68
2020/12/20 06:06:50;;;;;;;;;;;;;;;;;;5064018;28;19924;-67
2020/12/20 06:09:17;;;;;;;;;;;;;;;;;;5067812;28;19928;-66
2020/12/20 06:11:43;;;;;;;;;;;;;;;;;;5061994;28;19928;-68
2020/12/20 06:14:10;;;;;;;;;;;;;;;;;;5059584;28;19970;-67
2020/12/20 06:16:36;;;;;;;;;;;;;;;;;;5071213;28;19928;-67
2020/12/20 06:19:03;;;;;;;;;;;;;;;;;;5064374;28;20193;-66
2020/12/20 06:21:29;;;;;;;;;;;;;;;;;;5060051;28;19935;-67
2020/12/20 06:23:56;;;;;;;;;;;;;;;;;;5060624;28;19933;-67
2020/12/20 06:26:22;;;;;;;;;;;;;;;;;;5063454;28;20172;-68
2020/12/20 06:28:49;;;;;;;;;;;;;;;;;;5055900;28;20007;-67
2020/12/20 06:31:15;;;;;;;;;;;;;;;;;;5061703;28;19924;-67
2020/12/20 06:33:42;;;;;;;;;;;;;;;;;;5072118;28;19924;-66
2020/12/20 06:36:08;;;;;;;;;;;;;;;;;;5066159;28;19924;-67
2020/12/20 06:38:35;;;;;;;;;;;;;;;;;;5061007;28;19986;-67
2020/12/20 06:41:01;;;;;;;;;;;;;;;;;;5056234;28;19925;-67
2020/12/20 06:43:28;;;;;;;;;;;;;;;;;;5052615;28;20021;-66
2020/12/20 06:45:54;;;;;;;;;;;;;;;;;;5056577;28;19931;-67
2020/12/20 06:48:21;;;;;;;;;;;;;;;;;;5057563;28;19924;-67
2020/12/20 06:50:47;;;;;;;;;;;;;;;;;;5058039;28;19935;-70
2020/12/20 06:53:13;;;;;;;;;;;;;;;;;;5072894;28;19924;-68
2020/12/20 06:55:40;;;;;;;;;;;;;;;;;;5071503;28;19946;-63
2020/12/20 06:58:06;;;;;;;;;;;;;;;;;;5074794;28;20389;-68
2020/12/20 07:00:33;;;;;;;;;;;;;;;;;;5074824;28;19932;-67
2020/12/20 07:02:59;;;;;;;;;;;;;;;;;;5074947;28;19924;-66
2020/12/20 07:05:26;;;;;;;;;;;;;;;;;;5074497;28;19924;-68
2020/12/20 07:07:52;;;;;;;;;;;;;;;;;;5072487;28;19928;-66
2020/12/20 07:10:19;;;;;;;;;;;;;;;;;;5074592;28;20290;-66
2020/12/20 07:12:45;;;;;;;;;;;;;;;;;;5073182;28;19970;-67
2020/12/20 07:15:12;;;;;;;;;;;;;;;;;;5068796;28;19933;-67
2020/12/20 07:17:38;;;;;;;;;;;;;;;;;;5068343;28;20382;-68
2020/12/20 07:20:05;;;;;;;;;;;;;;;;;;5064865;28;19943;-65
2020/12/20 07:22:31;;;;;;;;;;;;;;;;;;5056522;28;19978;-67
2020/12/20 07:24:58;;;;;;;;;;;;;;;;;;5059718;28;19925;-68
2020/12/20 07:27:24;;;;;;;;;;;;;;;;;;5069846;28;19936;-66
2020/12/20 07:29:51;;;;;;;;;;;;;;;;;;5055553;28;19925;-67
2020/12/20 07:32:17;;;;;;;;;;;;;;;;;;5064262;28;20319;-65
2020/12/20 07:34:44;;;;;;;;;;;;;;;;;;5064829;28;19925;-67
2020/12/20 07:37:10;;;;;;;;;;;;;;;;;;5067470;28;20342;-66
2020/12/20 07:39:37;;;;;;;;;;;;;;;;;;5065653;28;19948;-68
2020/12/20 07:42:03;;;;;;;;;;;;;;;;;;5069230;28;19955;-67
2020/12/20 07:44:30;;;;;;;;;;;;;;;;;;5062299;28;19931;-66
2020/12/20 07:46:56;;;;;;;;;;;;;;;;;;5055263;28;19968;-68
2020/12/20 07:49:22;;;;;;;;;;;;;;;;;;5072450;28;20019;-65
2020/12/20 07:51:49;;;;;;;;;;;;;;;;;;5062781;28;19948;-68
2020/12/20 07:54:15;;;;;;;;;;;;;;;;;;5062396;28;19958;-68
2020/12/20 07:56:42;;;;;;;;;;;;;;;;;;5054811;28;19931;-65
2020/12/20 07:59:08;;;;;;;;;;;;;;;;;;5062093;28;19925;-67
2020/12/20 08:01:35;;;;;;;;;;;;;;;;;;5073508;28;20324;-66
2020/12/20 08:04:01;;;;;;;;;;;;;;;;;;5068165;28;19925;-68
2020/12/20 08:06:28;;;;;;;;;;;;;;;;;;5054421;28;19925;-68
2020/12/20 08:08:54;;;;;;;;;;;;;;;;;;5059446;28;19925;-65
2020/12/20 08:11:22;;;;;;;;;;;;;;;;;;5061248;28;20023;-67
2020/12/20 08:13:49;;;;;;;;;;;;;;;;;;5059979;28;20333;-68
2020/12/20 08:16:15;;;;;;;;;;;;;;;;;;5054962;28;19925;-67
2020/12/20 08:18:42;;;;;;;;;;;;;;;;;;5063681;28;19929;-67
2020/12/20 08:21:08;;;;;;;;;;;;;;;;;;5068732;28;19931;-66
2020/12/20 08:23:35;;;;;;;;;;;;;;;;;;5061586;28;19925;-66
2020/12/20 08:26:01;;;;;;;;;;;;;;;;;;5074180;28;19930;-66
2020/12/20 08:28:28;;;;;;;;;;;;;;;;;;5063106;28;19946;-66
2020/12/20 08:30:54;;;;;;;;;;;;;;;;;;5070626;28;19925;-67
2020/12/20 08:33:21;;;;;;;;;;;;;;;;;;5065215;28;19982;-65
2020/12/20 08:35:47;;;;;;;;;;;;;;;;;;5055473;28;19929;-68
2020/12/20 08:38:14;;;;;;;;;;;;;;;;;;5060046;28;19930;-68
2020/12/20 08:40:40;;;;;;;;;;;;;;;;;;5072085;28;20288;-68
2020/12/20 08:43:06;;;;;;;;;;;;;;;;;;5062039;28;19925;-68
2020/12/20 08:45:33;;;;;;;;;;;;;;;;;;5055825;28;20294;-67
2020/12/20 08:47:59;;;;;;;;;;;;;;;;;;5068371;28;19924;-67
2020/12/20 08:50:26;;;;;;;;;;;;;;;;;;5071449;28;19931;-68
2020/12/20 08:52:52;;;;;;;;;;;;;;;;;;5054158;28;20433;-67
2020/12/20 08:55:19;;;;;;;;;;;;;;;;;;5066168;28;20034;-67
2020/12/20 08:57:45;;;;;;;;;;;;;;;;;;5064072;28;19928;-68
2020/12/20 09:00:13;;;;;;;;;;;;;;;;;;5067868;28;19993;-68
2020/12/20 09:02:39;;;;;;;;;;;;;;;;;;5053670;28;20267;-68
2020/12/20 09:05:06;;;;;;;;;;;;;;;;;;5056547;28;19925;-66
2020/12/20 09:07:33;;;;;;;;;;;;;;;;;;5066688;28;19963;-68
2020/12/20 09:09:59;;;;;;;;;;;;;;;;;;5057662;28;19929;-68
2020/12/20 09:12:26;;;;;;;;;;;;;;;;;;5054109;28;19928;-67
2020/12/20 09:14:52;;;;;;;;;;;;;;;;;;5068213;28;20353;-67
2020/12/20 09:17:19;;;;;;;;;;;;;;;;;;5059265;28;19925;-67
2020/12/20 09:19:45;;;;;;;;;;;;;;;;;;5057863;28;20032;-67
2020/12/20 09:22:12;;;;;;;;;;;;;;;;;;5068055;28;19936;-67
2020/12/20 09:24:38;;;;;;;;;;;;;;;;;;5073462;28;19924;-67
2020/12/20 09:27:05;;;;;;;;;;;;;;;;;;5066777;28;20392;-68
2020/12/20 09:29:31;;;;;;;;;;;;;;;;;;5057262;28;19925;-68
2020/12/20 09:32:00;;;;;;;;;;;;;;;;;;5053948;28;20032;-67
2020/12/20 09:34:27;;;;;;;;;;;;;;;;;;5058267;28;19929;-67
2020/12/20 09:36:53;;;;;;;;;;;;;;;;;;5067281;28;19950;-67
2020/12/20 09:39:20;;;;;;;;;;;;;;;;;;5062066;28;19924;-68
2020/12/20 09:41:46;;;;;;;;;;;;;;;;;;5059085;28;19924;-68
2020/12/20 09:44:13;;;;;;;;;;;;;;;;;;5053065;28;20348;-67
2020/12/20 09:46:39;;;;;;;;;;;;;;;;;;5057114;28;20309;-67
2020/12/20 09:49:06;;;;;;;;;;;;;;;;;;5051943;28;19924;-66
2020/12/20 09:51:32;;;;;;;;;;;;;;;;;;5057382;28;20023;-65
2020/12/20 09:53:59;;;;;;;;;;;;;;;;;;5068071;28;20020;-66
2020/12/20 09:56:25;;;;;;;;;;;;;;;;;;5061114;28;19925;-67
2020/12/20 09:58:52;;;;;;;;;;;;;;;;;;5051672;28;20474;-66
2020/12/20 10:01:18;;;;;;;;;;;;;;;;;;5069275;28;20007;-65
2020/12/20 10:03:45;;;;;;;;;;;;;;;;;;5069154;28;19924;-65
2020/12/20 10:06:11;;;;;;;;;;;;;;;;;;5064256;28;20016;-65
2020/12/20 10:08:40;;;;;;;;;;;;;;;;;;5060599;28;19933;-68
2020/12/20 10:11:07;;;;;;;;;;;;;;;;;;5065986;28;19931;-66
2020/12/20 10:13:33;;;;;;;;;;;;;;;;;;5053217;28;19925;-66
2020/12/20 10:16:00;;;;;;;;;;;;;;;;;;5057798;28;19972;-67
2020/12/20 10:18:26;;;;;;;;;;;;;;;;;;5052135;28;20318;-67
2020/12/20 10:20:53;;;;;;;;;;;;;;;;;;5062982;28;19928;-66
2020/12/20 10:23:19;;;;;;;;;;;;;;;;;;5070393;28;20382;-65
2020/12/20 10:25:46;;;;;;;;;;;;;;;;;;5065977;28;20023;-65
2020/12/20 10:28:12;;;;;;;;;;;;;;;;;;5055951;28;20326;-66
2020/12/20 10:30:39;;;;;;;;;;;;;;;;;;5068401;28;19934;-67
2020/12/20 10:33:05;;;;;;;;;;;;;;;;;;5056850;28;19924;-66
2020/12/20 10:35:32;;;;;;;;;;;;;;;;;;5061578;28;19925;-65
2020/12/20 10:37:58;;;;;;;;;;;;;;;;;;5059696;28;19947;-66
2020/12/20 10:40:25;;;;;;;;;;;;;;;;;;5065627;28;20015;-66
2020/12/20 10:42:51;;;;;;;;;;;;;;;;;;5062989;28;19967;-66
2020/12/20 10:45:18;;;;;;;;;;;;;;;;;;5055986;28;19932;-66
2020/12/20 10:47:44;;;;;;;;;;;;;;;;;;5063640;28;19943;-66
2020/12/20 10:50:12;;;;;;;;;;;;;;;;;;5065406;28;20292;-67
2020/12/20 10:52:39;;;;;;;;;;;;;;;;;;5060707;28;20656;-66
2020/12/20 10:55:05;;;;;;;;;;;;;;;;;;5089390;22;19960;-63
2020/12/20 10:57:32;;;;;;;;;;;;;;;;;;5066006;28;19964;-63
2020/12/20 10:59:58;;;;;;;;;;;;;;;;;;5081108;28;19925;-62
2020/12/20 11:02:25;;;;;;;;;;;;;;;;;;5074987;28;20020;-62
2020/12/20 11:04:51;;;;;;;;;;;;;;;;;;5073541;28;19993;-64
2020/12/20 11:07:18;;;;;;;;;;;;;;;;;;5071551;28;19924;-64
2020/12/20 11:09:44;;;;;;;;;;;;;;;;;;5071767;28;20027;-63
2020/12/20 11:12:11;;;;;;;;;;;;;;;;;;5071252;28;19924;-63
2020/12/20 11:14:37;;;;;;;;;;;;;;;;;;5072366;28;19967;-63
2020/12/20 11:17:04;;;;;;;;;;;;;;;;;;5071534;28;19968;-64
2020/12/20 11:19:30;;;;;;;;;;;;;;;;;;5070843;28;19928;-64
2020/12/20 11:21:57;;;;;;;;;;;;;;;;;;5071743;28;20015;-63
2020/12/20 11:24:23;;;;;;;;;;;;;;;;;;5072215;28;20352;-63
2020/12/20 11:26:50;;;;;;;;;;;;;;;;;;5070343;28;19924;-65
2020/12/20 11:29:16;;;;;;;;;;;;;;;;;;5071277;28;19924;-63
2020/12/20 11:31:43;;;;;;;;;;;;;;;;;;5071566;28;20033;-63
2020/12/20 11:34:09;;;;;;;;;;;;;;;;;;5071031;28;20012;-61
2020/12/20 11:36:36;;;;;;;;;;;;;;;;;;5071341;28;19930;-62
2020/12/20 11:39:02;;;;;;;;;;;;;;;;;;5071308;28;20007;-61
2020/12/20 11:41:30;;;;;;;;;;;;;;;;;;5073273;28;19935;-63
2020/12/20 11:43:57;;;;;;;;;;;;;;;;;;5074284;28;19924;-63
2020/12/20 11:46:23;;;;;;;;;;;;;;;;;;5075230;28;20339;-62
2020/12/20 11:48:50;;;;;;;;;;;;;;;;;;5073029;28;19924;-64
2020/12/20 11:51:16;;;;;;;;;;;;;;;;;;5074785;28;20382;-63
2020/12/20 11:53:46;;;;;;;;;;;;;;;;;;5073409;28;19937;-63
2020/12/20 11:56:12;;;;;;;;;;;;;;;;;;5071768;28;20050;-61
2020/12/20 11:58:39;;;;;;;;;;;;;;;;;;5069059;28;20002;-65
2020/12/20 12:01:05;;;;;;;;;;;;;;;;;;5078894;28;19928;-61
2020/12/20 12:03:32;;;;;;;;;;;;;;;;;;5077873;28;19931;-64
2020/12/20 12:05:58;;;;;;;;;;;;;;;;;;5068034;28;19924;-63
2020/12/20 12:08:25;;;;;;;;;;;;;;;;;;5074063;28;19924;-63
2020/12/20 12:10:51;;;;;;;;;;;;;;;;;;5061765;28;20393;-63
2020/12/20 12:13:17;;;;;;;;;;;;;;;;;;5087219;28;19924;-64
2020/12/20 12:15:44;;;;;;;;;;;;;;;;;;5085637;28;19928;-64
2020/12/20 12:18:10;;;;;;;;;;;;;;;;;;5073538;28;20105;-65
2020/12/20 12:20:37;;;;;;;;;;;;;;;;;;5073955;28;20282;-64
2020/12/20 12:23:03;;;;;;;;;;;;;;;;;;5073575;28;19928;-65
2020/12/20 12:25:30;;;;;;;;;;;;;;;;;;5073475;28;20385;-64
2020/12/20 12:27:56;;;;;;;;;;;;;;;;;;5074905;28;19928;-64
2020/12/20 12:30:23;;;;;;;;;;;;;;;;;;5067814;28;20007;-64
2020/12/20 12:32:52;;;;;;;;;;;;;;;;;;5073875;28;20325;-63
2020/12/20 12:35:19;;;;;;;;;;;;;;;;;;5087696;28;19928;-64
2020/12/20 12:37:45;;;;;;;;;;;;;;;;;;5074889;28;19930;-63
2020/12/20 12:40:11;;;;;;;;;;;;;;;;;;5067318;28;19928;-64
2020/12/20 12:42:38;;;;;;;;;;;;;;;;;;5075298;28;20030;-64
2020/12/20 12:45:04;;;;;;;;;;;;;;;;;;5078768;28;20335;-64
2020/12/20 12:47:31;;;;;;;;;;;;;;;;;;5077082;28;19924;-64
2020/12/20 12:49:57;;;;;;;;;;;;;;;;;;5076368;28;20007;-64
2020/12/20 12:52:24;;;;;;;;;;;;;;;;;;5091244;28;19924;-64
2020/12/20 12:54:51;;;;;;;;;;;;;;;;;;5081497;28;19924;-64
2020/12/20 12:57:18;;;;;;;;;;;;;;;;;;5058274;28;19924;-63
2020/12/20 12:59:44;;;;;;;;;;;;;;;;;;5072653;28;19924;-64
2020/12/20 13:02:11;;;;;;;;;;;;;;;;;;5072337;28;19925;-64
2020/12/20 13:04:37;;;;;;;;;;;;;;;;;;5072675;28;19924;-64
2020/12/20 13:07:04;;;;;;;;;;;;;;;;;;5072542;28;19925;-64
2020/12/20 13:09:30;;;;;;;;;;;;;;;;;;5071630;28;20011;-65
2020/12/20 13:11:57;;;;;;;;;;;;;;;;;;5071777;28;19928;-64
2020/12/20 13:14:24;;;;;;;;;;;;;;;;;;5071309;28;19925;-62
2020/12/20 13:16:50;;;;;;;;;;;;;;;;;;5069080;28;19924;-65
2020/12/20 13:19:17;;;;;;;;;;;;;;;;;;5069287;28;19925;-63
2020/12/20 13:21:43;;;;;;;;;;;;;;;;;;5064457;28;20367;-64
2020/12/20 13:24:10;;;;;;;;;;;;;;;;;;5067138;28;19972;-65
2020/12/20 13:26:36;;;;;;;;;;;;;;;;;;5066268;28;19981;-63
2020/12/20 13:29:03;;;;;;;;;;;;;;;;;;5069827;28;19985;-64
2020/12/20 13:31:29;;;;;;;;;;;;;;;;;;5072945;28;20440;-63
2020/12/20 13:33:56;;;;;;;;;;;;;;;;;;5069184;28;19924;-64
2020/12/20 13:36:25;;;;;;;;;;;;;;;;;;5068633;28;19929;-66
2020/12/20 13:38:51;;;;;;;;;;;;;;;;;;5062743;28;19931;-65
2020/12/20 13:41:18;;;;;;;;;;;;;;;;;;5064304;28;20371;-64
2020/12/20 13:43:44;;;;;;;;;;;;;;;;;;5067130;28;19971;-64
2020/12/20 13:46:11;;;;;;;;;;;;;;;;;;5062115;28;19925;-65
2020/12/20 13:48:37;;;;;;;;;;;;;;;;;;5062605;28;20286;-65
2020/12/20 13:51:04;;;;;;;;;;;;;;;;;;5064093;28;20011;-67
2020/12/20 13:53:30;;;;;;;;;;;;;;;;;;5063319;28;20310;-65
2020/12/20 13:55:57;;;;;;;;;;;;;;;;;;5063432;28;19928;-64
2020/12/20 13:58:23;;;;;;;;;;;;;;;;;;5062953;28;19928;-62
2020/12/20 14:00:50;;;;;;;;;;;;;;;;;;5062917;28;20347;-63
2020/12/20 14:03:16;;;;;;;;;;;;;;;;;;5062618;28;19930;-67
2020/12/20 14:05:43;;;;;;;;;;;;;;;;;;5062701;28;19932;-63
2020/12/20 14:08:09;;;;;;;;;;;;;;;;;;5063753;28;19932;-65
2020/12/20 14:10:36;;;;;;;;;;;;;;;;;;5064015;28;19943;-66
2020/12/20 14:13:02;;;;;;;;;;;;;;;;;;5064068;28;20290;-64
2020/12/20 14:15:29;;;;;;;;;;;;;;;;;;5065417;28;19989;-63
2020/12/20 14:17:55;;;;;;;;;;;;;;;;;;5061830;28;19970;-64
2020/12/20 14:20:22;;;;;;;;;;;;;;;;;;5062830;28;20031;-63
2020/12/20 14:22:48;;;;;;;;;;;;;;;;;;5065391;28;20027;-63
2020/12/20 14:25:15;;;;;;;;;;;;;;;;;;5061755;28;19928;-65
2020/12/20 14:27:41;;;;;;;;;;;;;;;;;;5062574;28;19928;-64
2020/12/20 14:30:08;;;;;;;;;;;;;;;;;;5064090;28;19928;-64
2020/12/20 14:32:35;;;;;;;;;;;;;;;;;;5062181;28;20364;-64
2020/12/20 14:35:01;;;;;;;;;;;;;;;;;;5064546;28;19924;-65
2020/12/20 14:37:28;;;;;;;;;;;;;;;;;;5066052;28;19943;-66
2020/12/20 14:39:54;;;;;;;;;;;;;;;;;;5062655;28;20031;-63
2020/12/20 14:42:21;;;;;;;;;;;;;;;;;;5063108;28;19989;-63
2020/12/20 14:44:47;;;;;;;;;;;;;;;;;;5065300;28;19924;-64
2020/12/20 14:47:14;;;;;;;;;;;;;;;;;;5063737;28;19924;-66
2020/12/20 14:49:40;;;;;;;;;;;;;;;;;;5067564;28;19925;-63
2020/12/20 14:52:07;;;;;;;;;;;;;;;;;;5064270;28;19979;-63
2020/12/20 14:54:34;;;;;;;;;;;;;;;;;;5061917;28;19933;-63
2020/12/20 14:57:00;;;;;;;;;;;;;;;;;;5066208;28;20394;-64
2020/12/20 14:59:27;;;;;;;;;;;;;;;;;;5062464;28;20011;-64
2020/12/20 15:01:53;;;;;;;;;;;;;;;;;;5062332;28;20011;-64
2020/12/20 15:04:20;;;;;;;;;;;;;;;;;;5062367;28;21686;-63
2020/12/20 15:06:46;;;;;;;;;;;;;;;;;;5064909;28;20476;-64
2020/12/20 15:09:13;;;;;;;;;;;;;;;;;;5061863;28;19929;-63
2020/12/20 15:11:39;;;;;;;;;;;;;;;;;;5068093;28;20015;-63
2020/12/20 15:14:06;;;;;;;;;;;;;;;;;;5066157;28;19990;-64
2020/12/20 15:16:32;;;;;;;;;;;;;;;;;;5067477;28;20046;-62
2020/12/20 15:18:59;;;;;;;;;;;;;;;;;;5066156;28;19981;-64
2020/12/20 15:21:25;;;;;;;;;;;;;;;;;;5066759;28;19936;-64
2020/12/20 15:23:52;;;;;;;;;;;;;;;;;;5068372;28;20015;-64
2020/12/20 15:26:18;;;;;;;;;;;;;;;;;;5066548;28;19971;-64
2020/12/20 15:28:45;;;;;;;;;;;;;;;;;;5066796;28;20491;-64
2020/12/20 15:31:11;;;;;;;;;;;;;;;;;;5061732;28;19931;-67
2020/12/20 15:33:38;;;;;;;;;;;;;;;;;;5067032;28;19924;-66
2020/12/20 15:36:04;;;;;;;;;;;;;;;;;;5069423;28;19932;-62
2020/12/20 15:38:31;;;;;;;;;;;;;;;;;;5065322;28;19935;-63
2020/12/20 15:40:57;;;;;;;;;;;;;;;;;;5066031;28;19954;-64
2020/12/20 15:43:24;;;;;;;;;;;;;;;;;;5065587;28;19939;-62
2020/12/20 15:45:50;;;;;;;;;;;;;;;;;;5069631;28;20547;-63
2020/12/20 15:48:17;;;;;;;;;;;;;;;;;;5069790;28;19930;-62
2020/12/20 15:50:43;;;;;;;;;;;;;;;;;;5070899;28;19932;-64
2020/12/20 15:53:10;;;;;;;;;;;;;;;;;;5066028;28;19924;-64
2020/12/20 15:55:36;;;;;;;;;;;;;;;;;;5065421;28;19924;-64
2020/12/20 15:58:03;;;;;;;;;;;;;;;;;;5065514;28;19971;-65
2020/12/20 16:00:29;;;;;;;;;;;;;;;;;;5064958;28;19928;-63
2020/12/20 16:02:56;;;;;;;;;;;;;;;;;;5066892;28;19932;-67
2020/12/20 16:05:22;;;;;;;;;;;;;;;;;;5068347;28;20405;-66
2020/12/20 16:07:49;;;;;;;;;;;;;;;;;;5066298;28;20019;-62
2020/12/20 16:10:15;;;;;;;;;;;;;;;;;;5066843;28;19928;-62
2020/12/20 16:12:43;;;;;;;;;;;;;;;;;;5068033;28;19950;-62
2020/12/20 16:15:09;;;;;;;;;;;;;;;;;;5069038;28;20285;-62
2020/12/20 16:17:36;;;;;;;;;;;;;;;;;;5067995;28;20022;-63
2020/12/20 16:20:03;;;;;;;;;;;;;;;;;;5065726;28;20469;-64
2020/12/20 16:22:29;;;;;;;;;;;;;;;;;;5065679;28;19971;-62
2020/12/20 16:24:56;;;;;;;;;;;;;;;;;;5065922;28;19971;-64
2020/12/20 16:27:22;;;;;;;;;;;;;;;;;;5063119;28;20373;-66
2020/12/20 16:29:49;;;;;;;;;;;;;;;;;;5065428;28;20035;-59
2020/12/20 16:32:16;;;;;;;;;;;;;;;;;;5069402;28;19987;-64
2020/12/20 16:34:42;;;;;;;;;;;;;;;;;;5072436;28;19929;-63
2020/12/20 16:37:15;;;;;;;;;;;;;;;;;;5065096;28;20023;-64
2020/12/20 16:39:41;;;;;;;;;;;;;;;;;;5066281;28;19982;-63